Time;durP1;ratioP1;P1;durP2;ratioP2;P2;SDS_P1;SDS_P2;PMS_P1;PMS_P2;Temp;Humidity;BMP_temperature;BMP_pressure;BME280_temperature;BME280_humidity;BME280_pressure;Samples;Min_cycle;Max_cycle;Signal;HPM_P1;HPM_P2
2021/03/22 00:01:25;;;;;;;1.60;1.00;;;4.30;99.90;;;;;;5054063;28;20194;-75
2021/03/22 00:03:51;;;;;;;2.08;0.80;;;4.20;99.90;;;;;;5050830;28;20210;-74
2021/03/22 00:06:17;;;;;;;1.30;1.00;;;4.20;99.90;;;;;;5037582;28;20229;-75
2021/03/22 00:08:43;;;;;;;1.23;0.90;;;4.20;99.90;;;;;;5045252;28;20197;-76
2021/03/22 00:11:09;;;;;;;1.17;0.80;;;4.20;99.90;;;;;;5039865;28;20183;-75
2021/03/22 00:13:36;;;;;;;1.20;0.88;;;4.10;99.90;;;;;;5050387;28;20239;-75
2021/03/22 00:16:05;;;;;;;1.00;0.82;;;4.10;99.90;;;;;;5038807;28;20193;-75
2021/03/22 00:18:35;;;;;;;1.23;0.82;;;4.10;99.90;;;;;;5044424;28;20214;-75
2021/03/22 00:21:03;;;;;;;1.95;1.10;;;4.10;99.90;;;;;;5047662;28;20244;-75
2021/03/22 00:23:29;;;;;;;1.27;0.80;;;4.20;99.90;;;;;;5037481;28;20195;-75
2021/03/22 00:25:55;;;;;;;1.58;1.08;;;4.10;99.90;;;;;;5049179;28;20581;-74
2021/03/22 00:28:24;;;;;;;2.83;0.98;;;4.10;99.90;;;;;;5042236;28;20185;-74
2021/03/22 00:30:50;;;;;;;4.22;1.10;;;4.10;99.90;;;;;;5041535;28;20577;-74
2021/03/22 00:33:18;;;;;;;2.88;1.10;;;4.10;99.90;;;;;;5037571;28;20197;-74
2021/03/22 00:35:46;;;;;;;1.30;0.90;;;4.10;99.90;;;;;;5049876;28;20186;-74
2021/03/22 00:38:14;;;;;;;0.90;0.70;;;4.20;99.90;;;;;;5040429;28;20209;-74
2021/03/22 00:40:43;;;;;;;2.03;1.13;;;4.20;99.90;;;;;;5042748;28;20198;-74
2021/03/22 00:43:10;;;;;;;1.45;0.93;;;4.20;99.90;;;;;;5048512;28;20197;-74
2021/03/22 00:45:37;;;;;;;1.27;0.85;;;4.10;99.90;;;;;;5051256;28;20247;-74
2021/03/22 00:48:04;;;;;;;1.98;0.70;;;4.10;99.90;;;;;;5070317;28;20228;-75
2021/03/22 00:50:33;;;;;;;2.20;0.90;;;4.00;99.90;;;;;;5072954;28;20314;-74
2021/03/22 00:53:01;;;;;;;2.90;1.10;;;4.00;99.90;;;;;;5073142;28;20560;-75
2021/03/22 00:55:28;;;;;;;4.32;0.90;;;4.00;99.90;;;;;;5073221;28;20193;-75
2021/03/22 00:57:55;;;;;;;1.80;0.93;;;4.00;99.90;;;;;;5073057;28;20217;-75
2021/03/22 01:00:28;;;;;;;1.35;0.98;;;3.90;99.90;;;;;;5073041;28;20204;-75
2021/03/22 01:02:56;;;;;;;2.35;0.90;;;3.90;99.90;;;;;;5073051;28;20189;-75
2021/03/22 01:05:22;;;;;;;1.13;0.85;;;3.90;99.90;;;;;;5072727;28;20723;-75
2021/03/22 01:07:49;;;;;;;1.08;0.80;;;3.90;99.90;;;;;;5072703;28;20280;-75
2021/03/22 01:10:31;;;;;;;1.30;0.80;;;3.90;99.90;;;;;;5073126;28;20193;-75
2021/03/22 01:12:57;;;;;;;1.55;0.95;;;3.90;99.90;;;;;;5072726;28;20193;-75
2021/03/22 01:15:24;;;;;;;3.17;1.13;;;3.80;99.90;;;;;;5072715;28;20190;-75
2021/03/22 01:17:52;;;;;;;1.25;1.02;;;3.80;99.90;;;;;;5072900;28;20221;-75
2021/03/22 01:20:27;;;;;;;1.50;1.40;;;3.80;99.90;;;;;;5072869;28;20193;-74
2021/03/22 01:22:53;;;;;;;2.78;1.10;;;3.80;99.90;;;;;;5042779;28;20288;-74
2021/03/22 01:25:20;;;;;;;2.00;1.30;;;3.80;99.90;;;;;;5032601;28;20219;-74
2021/03/22 01:27:47;;;;;;;2.55;1.00;;;3.80;99.90;;;;;;5032533;28;20240;-74
2021/03/22 01:30:19;;;;;;;2.40;1.00;;;3.80;99.90;;;;;;5032644;28;20191;-74
2021/03/22 01:32:45;;;;;;;1.73;1.20;;;3.70;99.90;;;;;;5040256;28;20190;-74
2021/03/22 01:35:12;;;;;;;3.65;1.15;;;3.70;99.90;;;;;;5052807;28;20201;-74
2021/03/22 01:37:38;;;;;;;2.65;1.35;;;3.70;99.90;;;;;;5052318;28;20213;-75
2021/03/22 01:40:14;;;;;;;2.88;1.50;;;3.70;99.90;;;;;;5052554;28;20190;-75
2021/03/22 01:42:54;;;;;;;2.05;1.52;;;3.70;99.90;;;;;;5052450;28;20189;-75
2021/03/22 01:45:21;;;;;;;2.67;1.70;;;3.70;99.90;;;;;;5052758;28;20190;-75
2021/03/22 01:47:47;;;;;;;2.05;1.40;;;3.60;99.90;;;;;;5052334;28;20193;-75
2021/03/22 01:50:18;;;;;;;1.75;1.30;;;3.60;99.90;;;;;;5052508;28;20284;-74
2021/03/22 01:52:47;;;;;;;2.30;1.48;;;3.60;99.90;;;;;;5052468;28;20194;-75
2021/03/22 01:55:14;;;;;;;4.72;1.80;;;3.60;99.90;;;;;;5052374;28;20213;-75
2021/03/22 01:57:42;;;;;;;1.75;1.25;;;3.70;99.90;;;;;;5052340;28;20213;-75
2021/03/22 02:00:20;;;;;;;3.53;1.80;;;3.60;99.90;;;;;;5051088;28;20545;-75
2021/03/22 02:02:49;;;;;;;2.60;1.45;;;3.70;99.90;;;;;;5052511;28;20201;-75
2021/03/22 02:05:17;;;;;;;1.98;1.20;;;3.70;99.90;;;;;;5052109;28;20239;-75
2021/03/22 02:07:48;;;;;;;1.75;1.10;;;3.70;99.90;;;;;;5052375;28;20616;-75
2021/03/22 02:10:14;;;;;;;1.58;1.08;;;3.70;99.90;;;;;;5052395;28;20186;-75
2021/03/22 02:12:40;;;;;;;3.60;1.25;;;3.70;99.90;;;;;;5052259;28;20198;-75
2021/03/22 02:15:08;;;;;;;3.05;1.35;;;3.70;99.90;;;;;;5052224;28;20658;-75
2021/03/22 02:17:44;;;;;;;2.08;1.10;;;3.70;99.90;;;;;;5052049;28;20565;-75
2021/03/22 02:20:57;;;;;;;3.35;1.70;;;3.70;99.90;;;;;;5052176;28;20213;-74
2021/03/22 02:24:07;;;;;;;2.55;1.50;;;3.70;99.90;;;;;;5052372;28;20267;-75
2021/03/22 02:27:12;;;;;;;3.30;1.27;;;3.60;99.90;;;;;;5052180;28;20244;-75
2021/03/22 02:29:49;;;;;;;2.03;1.45;;;3.60;99.90;;;;;;5034479;28;20232;-74
2021/03/22 02:32:36;;;;;;;4.00;1.67;;;3.60;99.90;;;;;;5048445;28;20193;-75
2021/03/22 02:35:09;;;;;;;7.53;1.90;;;3.50;99.90;;;;;;5032098;28;20707;-74
2021/03/22 02:37:42;;;;;;;4.97;1.80;;;3.50;99.90;;;;;;5032029;28;20578;-75
2021/03/22 02:40:16;;;;;;;4.10;1.60;;;3.50;99.90;;;;;;5035153;28;20257;-74
2021/03/22 02:42:45;;;;;;;3.55;1.77;;;3.40;99.90;;;;;;5035492;28;20286;-74
2021/03/22 02:45:20;;;;;;;2.20;1.40;;;3.40;99.90;;;;;;5035520;28;20285;-74
2021/03/22 02:47:46;;;;;;;5.97;2.28;;;3.40;99.90;;;;;;5035577;28;20677;-74
2021/03/22 02:50:18;;;;;;;3.15;1.58;;;3.40;99.90;;;;;;5035433;28;20683;-74
2021/03/22 02:53:18;;;;;;;4.15;2.10;;;3.40;99.90;;;;;;5035462;28;20195;-75
2021/03/22 02:55:57;;;;;;;5.30;1.60;;;3.30;99.90;;;;;;5035893;28;20202;-75
2021/03/22 02:58:29;;;;;;;2.50;1.65;;;3.30;99.90;;;;;;5035417;28;20672;-75
2021/03/22 03:01:01;;;;;;;5.38;1.77;;;3.30;99.90;;;;;;5035422;28;20198;-75
2021/03/22 03:03:30;;;;;;;4.03;1.80;;;3.30;99.90;;;;;;5035203;28;20225;-75
2021/03/22 03:05:57;;;;;;;6.55;2.13;;;3.30;99.90;;;;;;5035135;28;20766;-74
2021/03/22 03:08:28;;;;;;;3.90;1.80;;;3.20;99.90;;;;;;5034978;28;20199;-74
2021/03/22 03:10:55;;;;;;;6.32;1.75;;;3.20;99.90;;;;;;5035301;28;20281;-75
2021/03/22 03:13:21;;;;;;;3.83;1.63;;;3.20;99.90;;;;;;5035090;28;20614;-76
2021/03/22 03:15:47;;;;;;;2.67;1.52;;;3.20;99.90;;;;;;5035116;28;20186;-75
2021/03/22 03:18:14;;;;;;;7.18;1.83;;;3.20;99.90;;;;;;5034790;28;20309;-75
2021/03/22 03:20:40;;;;;;;7.47;1.83;;;3.20;99.90;;;;;;5035201;28;20609;-75
2021/03/22 03:23:07;;;;;;;2.55;1.67;;;3.20;99.90;;;;;;5035112;28;20218;-74
2021/03/22 03:25:33;;;;;;;1.85;1.30;;;3.20;99.90;;;;;;5034937;28;20246;-75
2021/03/22 03:27:59;;;;;;;4.82;2.10;;;3.10;99.90;;;;;;5034765;28;20222;-75
2021/03/22 03:30:28;;;;;;;8.48;1.80;;;3.20;99.90;;;;;;5034983;28;20273;-75
2021/03/22 03:32:55;;;;;;;9.50;1.80;;;3.10;99.90;;;;;;5043537;28;20185;-74
2021/03/22 03:35:23;;;;;;;6.93;2.10;;;3.10;99.90;;;;;;5054974;28;20229;-75
2021/03/22 03:37:50;;;;;;;4.60;1.65;;;3.10;99.90;;;;;;5052243;28;20312;-75
2021/03/22 03:40:20;;;;;;;4.72;1.83;;;3.00;99.90;;;;;;5041551;28;20193;-75
2021/03/22 03:42:46;;;;;;;3.65;1.88;;;3.00;99.90;;;;;;5054456;28;20280;-74
2021/03/22 03:45:14;;;;;;;6.20;2.05;;;3.00;99.90;;;;;;5054477;28;20217;-74
2021/03/22 03:47:41;;;;;;;4.60;1.98;;;3.00;99.90;;;;;;5054214;28;20197;-74
2021/03/22 03:50:11;;;;;;;8.43;2.15;;;3.00;99.90;;;;;;5053057;28;20648;-74
2021/03/22 03:52:37;;;;;;;7.25;2.00;;;3.00;99.90;;;;;;5054421;28;20557;-74
2021/03/22 03:55:05;;;;;;;4.28;2.00;;;2.90;99.90;;;;;;5054441;28;20221;-74
2021/03/22 03:57:32;;;;;;;8.25;2.80;;;2.90;99.90;;;;;;5054101;28;20213;-74
2021/03/22 03:59:58;;;;;;;6.70;3.05;;;2.90;99.90;;;;;;5054175;28;20281;-74
2021/03/22 04:02:24;;;;;;;4.57;1.67;;;2.80;99.90;;;;;;5054160;28;20281;-74
2021/03/22 04:04:50;;;;;;;5.80;2.33;;;2.90;99.90;;;;;;5054264;28;20190;-75
2021/03/22 04:07:16;;;;;;;10.32;3.05;;;2.80;99.90;;;;;;5054036;28;20221;-74
2021/03/22 04:09:43;;;;;;;5.90;1.88;;;2.80;99.90;;;;;;5054048;28;20189;-74
2021/03/22 04:12:10;;;;;;;3.63;1.70;;;2.80;99.90;;;;;;5053874;28;20546;-74
2021/03/22 04:14:37;;;;;;;4.90;1.92;;;2.80;99.90;;;;;;5053880;28;20599;-74
2021/03/22 04:17:04;;;;;;;7.18;1.98;;;2.80;99.90;;;;;;5053942;28;20221;-74
2021/03/22 04:19:30;;;;;;;9.55;2.60;;;2.80;99.90;;;;;;5053878;28;20222;-75
2021/03/22 04:21:56;;;;;;;6.90;2.60;;;2.70;99.90;;;;;;5053646;28;20855;-74
2021/03/22 04:24:22;;;;;;;5.28;1.80;;;2.70;99.90;;;;;;5053453;28;20221;-74
2021/03/22 04:26:48;;;;;;;4.60;1.77;;;2.70;99.90;;;;;;5053602;28;20217;-75
2021/03/22 04:29:14;;;;;;;8.45;2.15;;;2.70;99.90;;;;;;5053455;28;20229;-75
2021/03/22 04:31:41;;;;;;;7.38;2.13;;;2.60;99.90;;;;;;5053545;28;20226;-75
2021/03/22 04:34:07;;;;;;;11.18;2.40;;;2.70;99.90;;;;;;5034560;28;20187;-75
2021/03/22 04:36:36;;;;;;;5.05;2.53;;;2.60;99.90;;;;;;5033679;28;20267;-74
2021/03/22 04:39:04;;;;;;;7.03;3.25;;;2.60;99.90;;;;;;5033415;28;20214;-75
2021/03/22 04:41:30;;;;;;;6.18;1.77;;;2.60;99.90;;;;;;5033479;28;20284;-75
2021/03/22 04:43:56;;;;;;;7.88;2.08;;;2.50;99.90;;;;;;5033201;28;20273;-75
2021/03/22 04:46:22;;;;;;;6.60;2.58;;;2.50;99.90;;;;;;5033509;28;20535;-76
2021/03/22 04:48:49;;;;;;;7.32;2.28;;;2.50;99.90;;;;;;5033099;28;20816;-76
2021/03/22 04:51:15;;;;;;;8.10;1.98;;;2.50;99.90;;;;;;5033283;28;20194;-75
2021/03/22 04:53:41;;;;;;;9.70;2.40;;;2.50;99.90;;;;;;5036394;28;20232;-75
2021/03/22 04:56:08;;;;;;;6.15;1.80;;;2.50;99.90;;;;;;5053030;28;20553;-76
2021/03/22 04:58:34;;;;;;;7.93;2.60;;;2.50;99.90;;;;;;5052888;28;20629;-76
2021/03/22 05:01:01;;;;;;;6.03;2.15;;;2.50;99.90;;;;;;5052874;28;20208;-76
2021/03/22 05:03:27;;;;;;;8.40;2.58;;;2.50;99.90;;;;;;5052917;28;20190;-76
2021/03/22 05:05:54;;;;;;;5.57;2.22;;;2.50;99.90;;;;;;5052871;28;20727;-76
2021/03/22 05:08:22;;;;;;;4.93;2.00;;;2.50;99.90;;;;;;5065821;28;20189;-76
2021/03/22 05:10:50;;;;;;;7.47;1.98;;;2.40;99.90;;;;;;5072771;28;20193;-76
2021/03/22 05:13:18;;;;;;;4.68;2.22;;;2.50;99.90;;;;;;5072926;28;20280;-76
2021/03/22 05:15:45;;;;;;;5.13;1.98;;;2.50;99.90;;;;;;5072792;28;20683;-76
2021/03/22 05:18:12;;;;;;;7.30;2.85;;;2.50;99.90;;;;;;5072528;28;20703;-76
2021/03/22 05:20:41;;;;;;;7.00;2.00;;;2.50;99.90;;;;;;5072876;28;20247;-76
2021/03/22 05:23:10;;;;;;;9.27;2.50;;;2.50;99.90;;;;;;5072708;28;20192;-76
2021/03/22 05:25:36;;;;;;;5.63;2.15;;;2.50;99.90;;;;;;5072563;28;20221;-76
2021/03/22 05:28:04;;;;;;;5.13;2.10;;;2.50;99.90;;;;;;5072687;28;20185;-76
2021/03/22 05:30:30;;;;;;;12.90;2.25;;;2.60;99.90;;;;;;5072860;28;20189;-76
2021/03/22 05:32:57;;;;;;;7.30;2.30;;;2.60;99.90;;;;;;5063492;28;20240;-76
2021/03/22 05:35:24;;;;;;;8.23;3.22;;;2.70;99.90;;;;;;5052345;28;20193;-76
2021/03/22 05:37:51;;;;;;;7.72;2.67;;;2.80;99.90;;;;;;5052526;28;20222;-76
2021/03/22 05:40:24;;;;;;;11.82;2.65;;;2.80;99.90;;;;;;5052727;28;20364;-76
2021/03/22 05:43:05;;;;;;;3.80;2.17;;;2.90;99.90;;;;;;5034030;28;20278;-76
2021/03/22 05:45:45;;;;;;;6.57;2.33;;;3.00;99.90;;;;;;5032296;28;20273;-76
2021/03/22 05:48:29;;;;;;;11.52;3.08;;;3.10;99.90;;;;;;5032562;28;20197;-76
2021/03/22 05:51:05;;;;;;;9.95;2.65;;;3.20;99.90;;;;;;5032432;28;20673;-76
2021/03/22 05:53:44;;;;;;;4.90;2.20;;;3.20;99.90;;;;;;5032736;28;20291;-76
2021/03/22 05:56:15;;;;;;;4.97;2.65;;;3.30;99.90;;;;;;5032644;28;20190;-76
2021/03/22 05:59:11;;;;;;;5.43;3.40;;;3.30;99.90;;;;;;5032355;28;20305;-76
2021/03/22 06:01:43;;;;;;;7.43;4.45;;;3.40;99.90;;;;;;4997172;28;20226;-76
2021/03/22 06:04:18;;;;;;;9.38;2.72;;;3.60;99.90;;;;;;5032470;28;20202;-76
2021/03/22 06:06:46;;;;;;;6.80;2.45;;;3.60;99.90;;;;;;5032926;28;20245;-76
2021/03/22 06:09:24;;;;;;;7.32;2.47;;;3.70;99.90;;;;;;5052146;28;20279;-76
2021/03/22 06:11:57;;;;;;;3.95;2.72;;;3.80;99.90;;;;;;5052487;28;20194;-76
2021/03/22 06:14:39;;;;;;;6.28;2.28;;;3.80;99.90;;;;;;5054548;28;20186;-76
2021/03/22 06:17:11;;;;;;;5.22;2.63;;;3.90;99.90;;;;;;5056198;28;20221;-76
2021/03/22 06:19:42;;;;;;;4.47;2.20;;;4.00;99.90;;;;;;5055923;28;20318;-76
2021/03/22 06:22:22;;;;;;;9.77;2.85;;;4.10;99.90;;;;;;5056054;28;20280;-76
2021/03/22 06:24:48;;;;;;;8.20;2.20;;;4.20;99.90;;;;;;5055810;28;20232;-76
2021/03/22 06:27:16;;;;;;;4.72;2.10;;;4.40;99.90;;;;;;5055909;28;20291;-76
2021/03/22 06:29:43;;;;;;;8.98;2.85;;;4.60;99.90;;;;;;5055856;28;20204;-76
2021/03/22 06:32:16;;;;;;;8.30;3.00;;;4.80;99.90;;;;;;5052933;28;20278;-76
2021/03/22 06:34:48;;;;;;;6.03;2.80;;;5.00;99.90;;;;;;5035995;28;20652;-76
2021/03/22 06:37:16;;;;;;;10.52;2.90;;;5.20;99.90;;;;;;5035917;28;20276;-76
2021/03/22 06:39:43;;;;;;;12.23;2.42;;;5.30;99.90;;;;;;5035576;28;20301;-77
2021/03/22 06:42:20;;;;;;;6.53;3.00;;;5.50;99.90;;;;;;5035842;28;20201;-77
2021/03/22 06:44:47;;;;;;;5.68;2.83;;;5.70;99.90;;;;;;5035470;28;20190;-77
2021/03/22 06:47:29;;;;;;;4.93;2.35;;;5.80;99.90;;;;;;5035770;28;20194;-76
2021/03/22 06:50:14;;;;;;;7.57;3.40;;;6.10;99.90;;;;;;5035579;28;20645;-76
2021/03/22 06:52:42;;;;;;;10.95;2.85;;;6.40;99.90;;;;;;5035527;28;20287;-77
2021/03/22 06:55:29;;;;;;;4.18;2.33;;;6.70;99.90;;;;;;5035821;28;20198;-75
2021/03/22 06:57:56;;;;;;;5.13;2.10;;;6.90;99.90;;;;;;5035041;28;20585;-76
2021/03/22 07:00:24;;;;;;;5.15;2.00;;;7.10;99.90;;;;;;5035459;28;20637;-76
2021/03/22 07:02:53;;;;;;;4.20;2.30;;;7.30;99.90;;;;;;5035309;28;20669;-76
2021/03/22 07:05:27;;;;;;;6.55;2.92;;;7.40;99.90;;;;;;5049559;28;20549;-75
2021/03/22 07:07:54;;;;;;;7.65;2.40;;;7.50;99.90;;;;;;5043455;28;20259;-75
2021/03/22 07:10:22;;;;;;;7.32;2.38;;;7.60;99.90;;;;;;5046142;28;20632;-76
2021/03/22 07:13:16;;;;;;;3.28;2.03;;;7.70;99.90;;;;;;5046361;28;20205;-77
2021/03/22 07:15:42;;;;;;;5.88;2.13;;;7.80;99.90;;;;;;5047050;28;20226;-77
2021/03/22 07:18:18;;;;;;;6.38;2.72;;;7.90;99.90;;;;;;5044728;28;20215;-77
2021/03/22 07:20:47;;;;;;;4.68;2.55;;;8.10;99.90;;;;;;5048206;28;20186;-76
2021/03/22 07:23:56;;;;;;;6.07;2.30;;;8.10;99.90;;;;;;5044038;28;20265;-76
2021/03/22 07:26:44;;;;;;;3.00;2.40;;;8.10;99.90;;;;;;5012252;28;20407;-76
2021/03/22 07:29:28;;;;;;;6.45;3.28;;;8.00;99.90;;;;;;5012722;28;20503;-77
2021/03/22 07:32:04;;;;;;;7.10;2.72;;;8.10;99.90;;;;;;5030346;28;20245;-77
2021/03/22 07:34:44;;;;;;;7.27;2.63;;;8.10;99.90;;;;;;5054352;28;20202;-76
2021/03/22 07:37:25;;;;;;;3.67;2.63;;;8.00;99.90;;;;;;5053333;28;20483;-77
2021/03/22 07:39:55;;;;;;;6.78;2.03;;;7.90;99.90;;;;;;5051205;28;21033;-77
2021/03/22 07:42:35;;;;;;;6.28;1.85;;;7.80;99.90;;;;;;5052058;28;20213;-76
2021/03/22 07:45:20;;;;;;;7.95;2.15;;;8.00;99.90;;;;;;5052809;28;20221;-76
2021/03/22 07:48:08;;;;;;;5.32;1.90;;;8.00;99.90;;;;;;5054411;28;20276;-76
2021/03/22 07:50:40;;;;;;;3.78;1.90;;;8.10;99.90;;;;;;5054191;28;20672;-77
2021/03/22 07:53:11;;;;;;;9.98;2.80;;;8.00;99.90;;;;;;5054032;28;20201;-76
2021/03/22 07:55:45;;;;;;;2.13;1.63;;;7.90;99.90;;;;;;5053198;28;20193;-76
2021/03/22 07:58:24;;;;;;;5.80;2.97;;;7.60;99.90;;;;;;5049190;28;20476;-78
2021/03/22 08:01:02;;;;;;;4.55;2.00;;;7.50;99.90;;;;;;5053095;28;20221;-76
2021/03/22 08:03:34;;;;;;;6.55;1.83;;;7.40;99.90;;;;;;5053439;28;20194;-75
2021/03/22 08:06:20;;;;;;;3.63;1.40;;;7.40;99.90;;;;;;5053913;28;20186;-77
2021/03/22 08:08:56;;;;;;;6.40;2.92;;;7.40;99.90;;;;;;5054048;28;20194;-80
2021/03/22 08:11:32;;;;;;;3.90;1.38;;;7.20;99.90;;;;;;5053594;28;20285;-75
2021/03/22 08:14:05;;;;;;;6.25;2.15;;;7.20;99.90;;;;;;5053197;28;20193;-74
2021/03/22 08:17:01;;;;;;;6.63;1.80;;;7.30;99.90;;;;;;5052995;28;20214;-75
2021/03/22 08:19:34;;;;;;;7.25;2.05;;;7.20;99.90;;;;;;5051141;28;20261;-75
2021/03/22 08:22:05;;;;;;;2.85;1.52;;;7.30;99.90;;;;;;5053375;28;20289;-74
2021/03/22 08:24:39;;;;;;;5.32;1.52;;;7.30;99.90;;;;;;5052609;28;20214;-74
2021/03/22 08:27:12;;;;;;;4.80;1.58;;;7.10;99.90;;;;;;5052971;28;20217;-74
2021/03/22 08:29:46;;;;;;;5.72;1.67;;;7.10;99.90;;;;;;5051058;28;20221;-74
2021/03/22 08:32:35;;;;;;;6.85;1.90;;;7.10;99.90;;;;;;5049804;28;20638;-74
2021/03/22 08:35:09;;;;;;;3.05;1.50;;;7.10;99.90;;;;;;5033328;28;20190;-74
2021/03/22 08:37:42;;;;;;;4.50;2.15;;;7.10;99.90;;;;;;5050439;28;20276;-77
2021/03/22 08:40:15;;;;;;;4.03;2.10;;;7.10;99.90;;;;;;5052773;28;20182;-74
2021/03/22 08:42:45;;;;;;;3.65;2.15;;;7.20;99.90;;;;;;5052767;28;20186;-74
2021/03/22 08:45:20;;;;;;;4.22;1.73;;;7.30;99.90;;;;;;5050374;28;20553;-74
2021/03/22 08:47:51;;;;;;;5.15;1.33;;;7.40;99.90;;;;;;5052782;28;20170;-73
2021/03/22 08:50:24;;;;;;;3.28;1.77;;;7.40;99.90;;;;;;5053012;28;20201;-73
2021/03/22 08:52:56;;;;;;;4.40;1.70;;;7.50;99.90;;;;;;5053031;28;20190;-73
2021/03/22 08:55:24;;;;;;;4.93;1.90;;;7.50;99.90;;;;;;5052797;28;20182;-73
2021/03/22 08:57:59;;;;;;;2.97;1.50;;;7.50;99.90;;;;;;5052321;28;20537;-77
2021/03/22 09:00:30;;;;;;;2.08;1.35;;;7.50;99.90;;;;;;5051955;28;20177;-74
2021/03/22 09:03:08;;;;;;;3.15;1.67;;;7.50;99.90;;;;;;5052129;28;20182;-75
2021/03/22 09:05:35;;;;;;;5.97;1.40;;;7.60;99.90;;;;;;5050617;28;20240;-76
2021/03/22 09:08:19;;;;;;;2.20;1.50;;;7.80;99.90;;;;;;5052017;28;20617;-76
2021/03/22 09:10:47;;;;;;;3.73;1.67;;;7.70;99.90;;;;;;5051814;28;20571;-76
2021/03/22 09:13:26;;;;;;;5.82;1.27;;;7.70;99.90;;;;;;5052218;28;20468;-74
2021/03/22 09:16:38;;;;;;;2.50;1.40;;;7.90;99.90;;;;;;5049892;28;20196;-75
2021/03/22 09:19:24;;;;;;;3.50;1.52;;;8.00;99.90;;;;;;5051309;28;20225;-75
2021/03/22 09:22:12;;;;;;;4.80;2.20;;;8.10;99.90;;;;;;5049636;28;20596;-74
2021/03/22 09:24:47;;;;;;;2.70;1.37;;;8.20;99.90;;;;;;5040781;28;20264;-74
2021/03/22 09:27:28;;;;;;;1.95;1.00;;;8.30;99.90;;;;;;5045977;28;20517;-74
2021/03/22 09:30:32;;;;;;;2.35;1.45;;;8.40;99.90;;;;;;5049141;28;20281;-74
2021/03/22 09:32:58;;;;;;;1.97;1.40;;;8.60;99.90;;;;;;5046471;28;20625;-75
2021/03/22 09:35:48;;;;;;;2.03;1.10;;;8.80;99.90;;;;;;5048231;28;20451;-77
2021/03/22 09:38:43;;;;;;;2.83;1.60;;;8.90;99.90;;;;;;5050363;28;20495;-77
2021/03/22 09:41:09;;;;;;;6.15;1.15;;;8.90;99.40;;;;;;5028600;28;20812;-75
2021/03/22 09:43:42;;;;;;;4.22;1.30;;;8.90;98.40;;;;;;5048125;28;20186;-76
2021/03/22 09:46:28;;;;;;;3.57;1.30;;;8.80;97.10;;;;;;5049983;28;20255;-76
2021/03/22 09:49:29;;;;;;;2.20;1.10;;;8.80;97.20;;;;;;5052955;28;20455;-75
2021/03/22 09:52:13;;;;;;;1.23;0.90;;;8.80;97.70;;;;;;5049208;28;20541;-75
2021/03/22 09:54:43;;;;;;;1.40;1.03;;;8.70;96.30;;;;;;5044612;28;20483;-75
2021/03/22 09:57:40;;;;;;;1.67;0.90;;;8.60;96.10;;;;;;5050964;28;20447;-75
2021/03/22 10:00:54;;;;;;;3.97;1.57;;;8.40;96.10;;;;;;5051665;28;20562;-76
2021/03/22 10:03:49;;;;;;;3.30;1.07;;;8.10;96.00;;;;;;5049827;28;20455;-75
2021/03/22 10:06:39;;;;;;;2.38;0.80;;;8.00;94.30;;;;;;5052078;28;20461;-75
2021/03/22 10:09:13;;;;;;;4.03;0.93;;;7.90;94.60;;;;;;5050745;28;20182;-73
2021/03/22 10:11:43;;;;;;;2.60;1.02;;;7.80;93.90;;;;;;5050274;28;20286;-75
2021/03/22 10:14:18;;;;;;;2.40;1.23;;;7.90;93.20;;;;;;5052729;28;20210;-74
2021/03/22 10:16:49;;;;;;;2.53;1.30;;;7.90;94.30;;;;;;5050271;28;20448;-74
2021/03/22 10:19:17;;;;;;;1.77;1.25;;;7.90;96.70;;;;;;5052729;28;20518;-75
2021/03/22 10:21:46;;;;;;;5.50;1.40;;;7.90;97.00;;;;;;5050170;28;20244;-74
2021/03/22 10:24:20;;;;;;;1.30;1.13;;;7.90;97.00;;;;;;5048964;28;20305;-74
2021/03/22 10:26:49;;;;;;;2.25;1.27;;;8.00;94.80;;;;;;5051114;28;20456;-74
2021/03/22 10:29:25;;;;;;;2.25;1.08;;;7.90;95.00;;;;;;5049547;28;20278;-74
2021/03/22 10:32:00;;;;;;;1.63;1.00;;;7.90;94.00;;;;;;5041217;28;20194;-74
2021/03/22 10:34:30;;;;;;;2.55;1.15;;;7.90;93.80;;;;;;5054683;28;20190;-74
2021/03/22 10:37:04;;;;;;;2.40;1.10;;;8.00;93.60;;;;;;5053919;28;20612;-74
2021/03/22 10:39:34;;;;;;;6.07;0.90;;;7.90;93.40;;;;;;5048742;28;20217;-74
2021/03/22 10:42:01;;;;;;;0.90;0.80;;;7.90;93.20;;;;;;5041055;28;20182;-74
2021/03/22 10:44:30;;;;;;;2.65;1.00;;;8.00;90.10;;;;;;5052066;28;20189;-74
2021/03/22 10:47:06;;;;;;;3.30;0.98;;;8.00;90.60;;;;;;5051827;28;20278;-74
2021/03/22 10:49:32;;;;;;;1.37;0.80;;;8.10;91.10;;;;;;5048324;28;20182;-74
2021/03/22 10:52:01;;;;;;;3.15;0.90;;;8.10;90.50;;;;;;5054106;28;20440;-74
2021/03/22 10:54:41;;;;;;;1.47;0.80;;;8.10;90.30;;;;;;5048500;28;20186;-75
2021/03/22 10:57:15;;;;;;;2.10;1.53;;;8.10;90.00;;;;;;5052530;28;20530;-74
2021/03/22 10:59:43;;;;;;;4.00;1.80;;;8.10;91.20;;;;;;5051246;28;20832;-74
2021/03/22 11:02:21;;;;;;;3.10;1.50;;;8.20;91.00;;;;;;5051969;28;20531;-74
2021/03/22 11:04:49;;;;;;;2.00;1.05;;;8.20;91.80;;;;;;5050331;28;20550;-74
2021/03/22 11:07:19;;;;;;;4.13;1.13;;;8.20;92.00;;;;;;5051707;28;20734;-75
2021/03/22 11:09:54;;;;;;;1.40;0.87;;;8.20;92.00;;;;;;5049793;28;20179;-75
2021/03/22 11:12:21;;;;;;;1.10;1.00;;;8.20;92.00;;;;;;5040946;28;20451;-75
2021/03/22 11:14:47;;;;;;;4.70;1.20;;;8.20;91.60;;;;;;5055962;28;20530;-74
2021/03/22 11:17:16;;;;;;;2.15;0.98;;;8.20;91.60;;;;;;5058164;28;20498;-75
2021/03/22 11:19:44;;;;;;;4.05;1.45;;;8.20;91.00;;;;;;5037315;28;20212;-75
2021/03/22 11:22:26;;;;;;;2.55;0.80;;;8.20;91.10;;;;;;5047725;28;20182;-75
2021/03/22 11:24:54;;;;;;;3.28;0.90;;;8.30;89.00;;;;;;5050095;28;20221;-75
2021/03/22 11:27:22;;;;;;;1.70;0.93;;;8.40;89.40;;;;;;5051143;28;20272;-75
2021/03/22 11:30:00;;;;;;;1.80;0.80;;;8.40;89.90;;;;;;5050009;28;20453;-74
2021/03/22 11:32:29;;;;;;;1.80;1.33;;;8.50;90.30;;;;;;5043614;28;20531;-74
2021/03/22 11:34:56;;;;;;;2.50;1.13;;;8.50;90.50;;;;;;5043850;28;20536;-74
2021/03/22 11:37:26;;;;;;;3.40;0.80;;;8.60;89.80;;;;;;5050801;28;20802;-74
2021/03/22 11:39:59;;;;;;;3.23;1.00;;;8.80;88.00;;;;;;5044505;28;20529;-74
2021/03/22 11:42:29;;;;;;;2.53;0.80;;;8.80;87.70;;;;;;5063786;28;20452;-74
2021/03/22 11:44:55;;;;;;;2.10;0.73;;;8.80;87.80;;;;;;5048466;28;20536;-74
2021/03/22 11:47:36;;;;;;;1.07;0.97;;;8.90;89.40;;;;;;5054427;28;20784;-74
2021/03/22 11:50:19;;;;;;;1.43;1.00;;;8.90;88.30;;;;;;5054128;28;20550;-75
2021/03/22 11:52:45;;;;;;;2.27;1.40;;;8.90;88.00;;;;;;5036787;28;20486;-74
2021/03/22 11:55:33;;;;;;;1.40;1.30;;;8.90;88.10;;;;;;5052394;28;20563;-74
2021/03/22 11:58:00;;;;;;;2.27;1.00;;;8.90;88.30;;;;;;5038905;28;20548;-75
2021/03/22 12:00:28;;;;;;;1.30;1.10;;;8.90;89.80;;;;;;5041954;28;20533;-75
2021/03/22 12:02:58;;;;;;;2.50;1.30;;;9.00;90.40;;;;;;5042529;28;20448;-75
2021/03/22 12:05:28;;;;;;;4.57;1.10;;;9.00;90.00;;;;;;5042211;28;20437;-75
2021/03/22 12:07:55;;;;;;;1.43;0.87;;;9.00;89.60;;;;;;5044304;28;20452;-75
2021/03/22 12:10:27;;;;;;;3.23;0.90;;;9.10;90.00;;;;;;5042123;28;20442;-75
2021/03/22 12:12:54;;;;;;;2.30;0.93;;;9.00;90.10;;;;;;5042043;28;20506;-75
2021/03/22 12:15:21;;;;;;;2.03;1.53;;;9.10;87.40;;;;;;5044283;28;20440;-75
2021/03/22 12:17:53;;;;;;;1.67;0.70;;;9.10;88.20;;;;;;5042746;28;20446;-75
2021/03/22 12:20:23;;;;;;;0.90;0.90;;;9.10;89.00;;;;;;5041952;28;20520;-75
2021/03/22 12:22:49;;;;;;;1.57;0.90;;;9.10;89.80;;;;;;5043054;28;20441;-75
2021/03/22 12:25:18;;;;;;;2.90;0.90;;;9.10;87.80;;;;;;5041615;28;20472;-75
2021/03/22 12:27:45;;;;;;;1.70;1.03;;;9.20;85.40;;;;;;5042399;28;20449;-75
2021/03/22 12:30:12;;;;;;;0.80;0.63;;;9.20;84.80;;;;;;5040039;28;20539;-74
2021/03/22 12:32:46;;;;;;;1.10;0.80;;;9.30;84.80;;;;;;5130372;27;20889;-76
2021/03/22 12:35:16;;;;;;;1.47;0.73;;;9.30;84.10;;;;;;5119001;28;20442;-74
2021/03/22 12:37:44;;;;;;;1.13;0.80;;;9.30;82.20;;;;;;5122425;28;20444;-73
2021/03/22 12:40:13;;;;;;;1.40;1.03;;;9.40;84.20;;;;;;5130902;28;20490;-74
2021/03/22 12:42:41;;;;;;;1.53;1.13;;;9.40;83.40;;;;;;5129449;27;20524;-74
2021/03/22 12:45:15;;;;;;;4.03;0.90;;;9.40;84.20;;;;;;5118677;28;20541;-75
2021/03/22 12:47:41;;;;;;;2.70;1.00;;;9.50;82.00;;;;;;5114322;28;20449;-75
2021/03/22 12:50:19;;;;;;;1.27;0.70;;;9.60;83.70;;;;;;5116742;28;20511;-75
2021/03/22 12:52:47;;;;;;;1.03;0.77;;;9.60;82.20;;;;;;5118712;28;21031;-76
2021/03/22 12:55:14;;;;;;;2.50;1.10;;;9.70;82.40;;;;;;5118227;28;20437;-75
2021/03/22 12:57:40;;;;;;;4.00;0.70;;;9.90;79.70;;;;;;5112687;28;20575;-75
2021/03/22 13:00:07;;;;;;;2.07;0.73;;;9.90;80.00;;;;;;5109567;28;20465;-77
2021/03/22 13:02:33;;;;;;;1.53;0.80;;;10.10;79.10;;;;;;5109512;28;20808;-76
2021/03/22 13:05:00;;;;;;;1.80;1.10;;;10.10;77.60;;;;;;5104737;28;20453;-76
2021/03/22 13:07:27;;;;;;;0.90;0.63;;;10.20;78.40;;;;;;5107667;28;20990;-76
2021/03/22 13:09:53;;;;;;;1.30;0.80;;;10.30;78.90;;;;;;5108364;28;20438;-76
2021/03/22 13:12:23;;;;;;;1.20;0.90;;;10.30;77.10;;;;;;5106852;28;20474;-76
2021/03/22 13:14:50;;;;;;;0.93;0.80;;;10.50;78.40;;;;;;5109020;28;20445;-77
2021/03/22 13:17:18;;;;;;;2.27;0.83;;;10.70;78.40;;;;;;5108970;28;20532;-76
2021/03/22 13:19:44;;;;;;;1.83;0.93;;;10.70;77.80;;;;;;5103722;28;20447;-76
2021/03/22 13:22:14;;;;;;;2.70;1.10;;;10.90;79.40;;;;;;5109146;28;20446;-76